Pagina principale
METAR-TAF:

METAR-TAF

Aeroporti :

Ilam, Iran

latitudine: 33-35-09N, longitudine: 046-24-20E, altezza: 1334 m

Osservazione

Il bollettino è stato emesso 59 minuti fa, alle 23:00 UTC
Vento 4 kt da est/nord-est
Temperature 19°C
Umidità 30%
Pressione 1017 hPa
Visibilità 10 km o più
Poco nuvoloso ad un'altezza di 5000 ft

METAR: OICI 292300Z 07004KT 9999 FEW050 19/01 Q1017 A3004

Ora: 04:29 (23:59 UTC)

Previsione

Il bollettino è stato emesso 49 minuti fa, alle 23:10 UTC
Previsione valida dal 30 alle 00 UTC al 31 alle 06 UTC
Vento 8 kt da ovest
Visibilità: 7000 m
Probabilità 40% :
Temporaneamente
dal 30 alle 09 UTC al 30 alle 15 UTC
Visibilità: 4000 m
polvere diffusa

TAF: OICI 292310Z 3000/3106 26008KT 7000 NSC PROB40 TEMPO 3009/3015 4000 DU

Osservazioni e previsioni meteorologiche di più di 4000 aeroporti (messaggi METAR e TAF).

Le stazioni disponibili sono rappresentate dai dischi gialli e rossi sulla carta.

Puntare il mouse per vedere il nome della stazione.

Clicca sopra per visualizzare le osservazioni e previsioni meteorologiche.

Per cambiare la mappa : fare clic sui pulsanti verdi con una croce nera per ingrandire, il pulsante verde con un trattino per diminuire, o sulla freccia verde per le mappe adiacenti.


METAR-TAF: